createdAt,value
2018-12-08T00:00:40.549Z,60.00
2018-12-08T00:03:08.372Z,59.00
2018-12-08T00:05:36.313Z,59.20
2018-12-08T00:08:04.141Z,58.60
2018-12-08T00:10:31.975Z,57.70
2018-12-08T00:12:59.798Z,58.70
2018-12-08T00:15:28.403Z,57.60
2018-12-08T00:17:56.293Z,57.30
2018-12-08T00:20:24.089Z,57.60
2018-12-08T00:22:51.810Z,57.30
2018-12-08T00:25:19.545Z,57.30
2018-12-08T00:27:47.327Z,57.50
2018-12-08T00:30:26.421Z,56.80
2018-12-08T00:32:54.107Z,57.50
2018-12-08T00:35:21.905Z,57.30
2018-12-08T00:37:49.645Z,57.20
2018-12-08T00:40:17.582Z,57.30
2018-12-08T00:42:45.522Z,58.00
2018-12-08T00:45:13.373Z,57.50
2018-12-08T00:47:41.141Z,57.30
2018-12-08T00:50:08.953Z,57.30
2018-12-08T00:52:36.900Z,57.90
2018-12-08T00:55:04.992Z,57.80
2018-12-08T00:57:32.782Z,57.00
2018-12-08T01:00:00.455Z,55.90
2018-12-08T01:02:28.307Z,55.60
2018-12-08T01:04:56.110Z,56.40
2018-12-08T01:07:25.204Z,55.90
2018-12-08T01:09:52.847Z,55.30
2018-12-08T01:12:20.810Z,55.70
2018-12-08T01:14:48.632Z,56.30
2018-12-08T01:17:16.371Z,55.70
2018-12-08T01:19:44.114Z,55.10
2018-12-08T01:22:11.772Z,55.10
2018-12-08T01:24:39.490Z,55.50
2018-12-08T01:27:07.293Z,55.10
2018-12-08T01:29:35.732Z,53.50
2018-12-08T01:32:03.413Z,54.80
2018-12-08T01:34:31.178Z,53.80
2018-12-08T01:37:00.367Z,53.10
2018-12-08T01:39:28.225Z,53.40
2018-12-08T01:41:55.878Z,53.20
2018-12-08T01:44:25.103Z,51.50
2018-12-08T01:46:52.961Z,50.00
2018-12-08T01:49:20.670Z,51.00
2018-12-08T01:51:48.386Z,50.50
2018-12-08T01:54:16.093Z,50.00
2018-12-08T01:56:44.609Z,50.20
2018-12-08T01:59:12.241Z,49.60
2018-12-08T02:01:40.131Z,48.80
2018-12-08T02:04:07.811Z,49.30
2018-12-08T02:06:36.107Z,49.10
2018-12-08T02:09:07.590Z,48.90
2018-12-08T02:11:35.343Z,48.20
2018-12-08T02:14:03.150Z,47.90
2018-12-08T02:16:30.967Z,47.20
2018-12-08T02:18:58.795Z,47.60
2018-12-08T02:21:26.850Z,46.70
2018-12-08T02:23:54.740Z,47.20
2018-12-08T02:26:23.183Z,47.70
2018-12-08T02:28:51.243Z,46.90
2018-12-08T02:31:19.797Z,47.10
2018-12-08T02:33:47.641Z,47.40
2018-12-08T02:36:15.324Z,47.90
2018-12-08T02:38:44.249Z,47.60
2018-12-08T02:41:11.997Z,47.40
2018-12-08T02:43:40.569Z,47.40
2018-12-08T02:46:08.507Z,46.70
2018-12-08T02:48:37.166Z,47.10
2018-12-08T02:51:05.014Z,48.20
2018-12-08T02:53:32.786Z,47.50
2018-12-08T02:56:01.677Z,48.10
2018-12-08T02:58:30.076Z,48.70
2018-12-08T03:00:57.950Z,49.10
2018-12-08T03:03:25.668Z,49.50
2018-12-08T03:05:53.453Z,50.20
2018-12-08T03:08:21.134Z,49.80
2018-12-08T03:10:48.816Z,50.20
2018-12-08T03:13:17.995Z,50.20
2018-12-08T03:15:46.027Z,50.20
2018-12-08T03:18:14.218Z,49.20
2018-12-08T03:20:42.314Z,49.10
2018-12-08T03:23:10.077Z,48.40
2018-12-08T03:25:37.838Z,47.90
2018-12-08T03:28:06.381Z,48.70
2018-12-08T03:30:34.048Z,47.90
2018-12-08T03:33:01.939Z,48.30
2018-12-08T03:35:30.718Z,48.00
2018-12-08T03:37:59.341Z,48.00
2018-12-08T03:40:27.038Z,48.40
2018-12-08T03:42:54.743Z,48.30
2018-12-08T03:45:23.521Z,47.90
2018-12-08T03:47:52.125Z,47.90
2018-12-08T03:50:20.055Z,48.30
2018-12-08T03:52:48.340Z,48.90
2018-12-08T03:55:16.577Z,48.70
2018-12-08T03:57:44.452Z,48.70
2018-12-08T04:00:12.262Z,49.00
2018-12-08T04:02:39.973Z,48.50
2018-12-08T04:05:09.027Z,48.70
2018-12-08T04:07:36.641Z,48.40
2018-12-08T04:10:05.277Z,48.90
2018-12-08T04:12:33.218Z,49.90
2018-12-08T04:15:00.933Z,49.10
2018-12-08T04:17:28.569Z,49.90
2018-12-08T04:19:56.330Z,50.00
2018-12-08T04:22:24.171Z,50.90
2018-12-08T04:24:52.780Z,52.10
2018-12-08T04:27:20.475Z,53.50
2018-12-08T04:29:48.298Z,52.30
2018-12-08T04:32:16.112Z,52.60
2018-12-08T04:34:44.102Z,52.80
2018-12-08T04:37:11.998Z,53.40
2018-12-08T04:39:39.781Z,52.70
2018-12-08T04:42:07.441Z,52.80
2018-12-08T04:44:35.102Z,52.70
2018-12-08T04:47:03.001Z,52.70
2018-12-08T04:49:30.761Z,52.30
2018-12-08T04:51:58.538Z,52.80
2018-12-08T04:54:26.289Z,52.80
2018-12-08T04:56:54.061Z,52.90
2018-12-08T04:59:21.778Z,52.40
2018-12-08T05:01:49.574Z,53.10
2018-12-08T05:04:18.062Z,53.10
2018-12-08T05:06:45.881Z,52.60
2018-12-08T05:09:13.574Z,52.50
2018-12-08T05:11:41.477Z,52.90
2018-12-08T05:14:09.126Z,51.80
2018-12-08T05:16:37.464Z,52.00
2018-12-08T05:19:06.232Z,52.20
2018-12-08T05:21:34.906Z,52.90
2018-12-08T05:24:02.709Z,51.90
2018-12-08T05:26:31.157Z,52.40
2018-12-08T05:28:58.859Z,52.50
2018-12-08T05:31:26.476Z,52.50
2018-12-08T05:33:54.854Z,53.00
2018-12-08T05:36:22.563Z,53.00
2018-12-08T05:38:50.783Z,53.00
2018-12-08T05:41:18.486Z,53.60
2018-12-08T05:43:46.351Z,53.80
2018-12-08T05:46:14.691Z,54.60
2018-12-08T05:48:42.870Z,55.60
2018-12-08T05:51:11.770Z,55.90
2018-12-08T05:53:39.535Z,56.30
2018-12-08T05:56:07.246Z,56.20
2018-12-08T05:58:34.949Z,56.20
2018-12-08T06:01:02.589Z,57.60
2018-12-08T06:03:30.810Z,56.20
2018-12-08T06:05:58.553Z,57.40
2018-12-08T06:08:26.258Z,57.50
2018-12-08T06:10:54.309Z,56.40
2018-12-08T06:13:22.070Z,56.50
2018-12-08T06:15:49.740Z,56.80
2018-12-08T06:18:17.861Z,56.20
2018-12-08T06:20:46.251Z,57.30
2018-12-08T06:23:14.515Z,55.80
2018-12-08T06:25:42.310Z,56.20
2018-12-08T06:28:19.268Z,55.60
2018-12-08T06:30:46.950Z,56.00
2018-12-08T06:33:15.686Z,56.20
2018-12-08T06:35:43.511Z,56.20
2018-12-08T06:38:11.781Z,56.20
2018-12-08T06:40:39.430Z,56.20
2018-12-08T06:43:07.066Z,56.50
2018-12-08T06:45:34.763Z,56.00
2018-12-08T06:48:02.491Z,55.70
2018-12-08T06:50:30.318Z,56.00
2018-12-08T06:52:58.198Z,56.00
2018-12-08T06:55:25.893Z,56.00
2018-12-08T06:57:54.146Z,54.80
2018-12-08T07:00:21.895Z,54.20
2018-12-08T07:02:49.639Z,54.20
2018-12-08T07:05:17.942Z,53.20
2018-12-08T07:07:45.873Z,52.70
2018-12-08T07:10:14.238Z,52.80
2018-12-08T07:12:42.576Z,51.70
2018-12-08T07:15:10.352Z,51.40
2018-12-08T07:17:38.274Z,51.00
2018-12-08T07:20:07.139Z,51.00
2018-12-08T07:22:34.780Z,51.00
2018-12-08T07:25:02.668Z,50.60
2018-12-08T07:27:31.013Z,50.30
2018-12-08T07:29:59.053Z,50.80
2018-12-08T07:32:26.968Z,49.70
2018-12-08T07:34:54.769Z,49.40
2018-12-08T07:37:22.657Z,49.40
2018-12-08T07:39:50.941Z,49.40
2018-12-08T07:42:19.905Z,49.50
2018-12-08T07:44:48.025Z,50.00
2018-12-08T07:47:15.835Z,49.50
2018-12-08T07:49:43.844Z,50.00
2018-12-08T07:52:11.735Z,49.10
2018-12-08T07:54:40.829Z,49.10
2018-12-08T07:57:08.975Z,48.50
2018-12-08T07:59:37.059Z,48.90
2018-12-08T08:02:06.067Z,49.00
2018-12-08T08:04:33.963Z,48.60
2018-12-08T08:07:02.809Z,48.90
2018-12-08T08:09:30.558Z,48.70
2018-12-08T08:11:58.328Z,49.50
2018-12-08T08:14:26.337Z,49.70
2018-12-08T08:16:54.182Z,49.70
2018-12-08T08:19:22.022Z,49.70
2018-12-08T08:21:50.698Z,49.70
2018-12-08T08:24:18.595Z,50.30
2018-12-08T08:26:50.048Z,51.40
2018-12-08T08:29:17.813Z,52.10
2018-12-08T08:31:45.510Z,52.10
2018-12-08T08:34:13.207Z,53.90
2018-12-08T08:36:40.993Z,53.70
2018-12-08T08:39:08.956Z,53.80
2018-12-08T08:41:36.865Z,54.50
2018-12-08T08:44:05.230Z,54.20
2018-12-08T08:46:33.004Z,54.30
2018-12-08T08:49:01.555Z,54.50
2018-12-08T08:51:29.594Z,55.10
2018-12-08T08:53:57.367Z,56.30
2018-12-08T08:56:25.311Z,56.70
2018-12-08T08:58:53.126Z,55.90
2018-12-08T09:01:21.076Z,56.70
2018-12-08T09:03:48.902Z,58.10
2018-12-08T09:06:16.625Z,56.70
2018-12-08T09:08:45.037Z,57.60
2018-12-08T09:11:12.791Z,59.90
2018-12-08T09:13:40.800Z,61.80
2018-12-08T09:16:08.803Z,62.50
2018-12-08T09:18:36.808Z,61.50
2018-12-08T09:21:04.936Z,63.20
2018-12-08T09:23:33.219Z,62.60
2018-12-08T09:26:01.154Z,62.60
2018-12-08T09:28:29.142Z,62.90
2018-12-08T09:30:57.839Z,63.70
2018-12-08T09:33:25.641Z,63.30
2018-12-08T09:35:53.670Z,64.10
2018-12-08T09:38:21.652Z,63.40
2018-12-08T09:40:49.504Z,62.70
2018-12-08T09:43:17.763Z,63.50
2018-12-08T09:45:45.669Z,63.40
2018-12-08T09:48:13.597Z,63.50
2018-12-08T09:50:42.045Z,63.10
2018-12-08T09:53:17.906Z,63.60
2018-12-08T09:55:45.779Z,62.90
2018-12-08T09:58:13.805Z,63.10
2018-12-08T10:00:41.687Z,63.60
2018-12-08T10:03:09.919Z,63.50
2018-12-08T10:05:38.189Z,63.50
2018-12-08T10:08:06.119Z,64.80
2018-12-08T10:10:33.912Z,65.90
2018-12-08T10:13:01.873Z,66.10
2018-12-08T10:15:30.406Z,65.80
2018-12-08T10:17:58.251Z,66.10
2018-12-08T10:20:26.283Z,65.90
2018-12-08T10:22:54.747Z,65.10
2018-12-08T10:25:22.772Z,65.60
2018-12-08T10:27:50.953Z,66.60
2018-12-08T10:30:19.578Z,66.90
2018-12-08T10:32:47.798Z,66.40
2018-12-08T10:35:16.784Z,66.70
2018-12-08T10:37:44.969Z,65.90
2018-12-08T10:40:13.905Z,65.60
2018-12-08T10:42:41.712Z,65.90
2018-12-08T10:45:10.424Z,65.40
2018-12-08T10:47:38.352Z,65.40
2018-12-08T10:50:09.113Z,65.10
2018-12-08T10:52:38.177Z,64.80
2018-12-08T10:55:06.791Z,64.90
2018-12-08T10:57:35.431Z,64.70
2018-12-08T11:00:03.799Z,64.80
2018-12-08T11:02:39.232Z,64.90
2018-12-08T11:05:09.794Z,65.40
2018-12-08T11:07:37.901Z,64.70
2018-12-08T11:10:06.111Z,65.20
2018-12-08T11:12:33.871Z,65.90
2018-12-08T11:15:01.977Z,65.60
2018-12-08T11:17:29.783Z,66.30
2018-12-08T11:19:57.728Z,66.90
2018-12-08T11:22:26.946Z,67.30
2018-12-08T11:24:55.557Z,68.60
2018-12-08T11:27:23.358Z,69.10
2018-12-08T11:29:52.033Z,69.40
2018-12-08T11:32:19.915Z,70.60
2018-12-08T11:34:47.927Z,71.70
2018-12-08T11:37:15.688Z,71.80
2018-12-08T11:39:44.242Z,73.20
2018-12-08T11:42:12.303Z,73.60
2018-12-08T11:44:40.663Z,76.60
2018-12-08T11:47:08.406Z,78.10
2018-12-08T11:49:36.888Z,77.90
2018-12-08T11:52:04.719Z,78.30
2018-12-08T11:54:32.533Z,80.00
2018-12-08T11:57:00.859Z,80.00
2018-12-08T11:59:28.719Z,79.90
2018-12-08T12:01:56.820Z,80.00
2018-12-08T12:04:24.834Z,79.70
2018-12-08T12:06:53.026Z,78.10
2018-12-08T12:09:21.254Z,79.10
2018-12-08T12:11:49.244Z,78.70
2018-12-08T12:14:17.144Z,77.40
2018-12-08T12:16:45.128Z,78.20
2018-12-08T12:19:13.240Z,77.50
2018-12-08T12:21:41.807Z,78.10
2018-12-08T12:24:09.861Z,81.10
2018-12-08T12:26:38.257Z,80.10
2018-12-08T12:29:06.791Z,80.20
2018-12-08T12:31:35.201Z,79.30
2018-12-08T12:34:03.340Z,79.40
2018-12-08T12:36:31.467Z,80.00
2018-12-08T12:38:59.555Z,80.20
2018-12-08T12:41:27.890Z,81.80
2018-12-08T12:43:55.767Z,81.70
2018-12-08T12:46:24.540Z,81.90
2018-12-08T12:48:52.991Z,82.20
2018-12-08T12:51:22.072Z,82.50
2018-12-08T12:53:49.883Z,82.50
2018-12-08T12:56:18.371Z,83.50
2018-12-08T12:58:46.125Z,81.30
2018-12-08T13:01:14.362Z,82.10
2018-12-08T13:03:42.327Z,83.80
2018-12-08T13:06:10.964Z,83.10
2018-12-08T13:08:38.859Z,79.90
2018-12-08T13:11:07.393Z,79.30
2018-12-08T13:13:35.953Z,79.10
2018-12-08T13:16:03.897Z,80.00
2018-12-08T13:18:31.612Z,80.60
2018-12-08T13:20:59.570Z,79.00
2018-12-08T13:23:28.804Z,79.60
2018-12-08T13:25:56.556Z,78.80
2018-12-08T13:28:24.508Z,79.00
2018-12-08T13:30:52.435Z,78.90
2018-12-08T13:33:20.498Z,79.60
2018-12-08T13:35:51.561Z,80.00
2018-12-08T13:38:19.864Z,80.50
2018-12-08T13:40:48.411Z,82.00
2018-12-08T13:43:16.321Z,82.50
2018-12-08T13:45:44.116Z,82.40
2018-12-08T13:48:13.469Z,82.50
2018-12-08T13:50:42.250Z,84.70
2018-12-08T13:53:10.777Z,84.90
2018-12-08T13:55:38.739Z,85.70
2018-12-08T13:58:07.284Z,87.30
2018-12-08T14:00:35.256Z,90.20
2018-12-08T14:03:03.008Z,90.00
2018-12-08T14:05:30.989Z,90.40
2018-12-08T14:07:58.924Z,90.40
2018-12-08T14:10:27.885Z,89.10
2018-12-08T14:12:55.768Z,89.00
2018-12-08T14:15:23.847Z,89.00
2018-12-08T14:17:51.771Z,88.80
2018-12-08T14:20:25.102Z,90.20
2018-12-08T14:22:52.972Z,90.10
2018-12-08T14:25:21.285Z,88.80
2018-12-08T14:27:49.035Z,88.50
2018-12-08T14:30:16.862Z,88.00
2018-12-08T14:32:44.635Z,89.30
2018-12-08T14:35:12.616Z,85.90
2018-12-08T14:37:40.408Z,85.20
2018-12-08T14:40:09.077Z,84.00
2018-12-08T14:42:38.014Z,82.50
2018-12-08T14:45:08.215Z,82.40
2018-12-08T14:47:36.162Z,82.40
2018-12-08T14:50:04.894Z,82.50
2018-12-08T14:52:32.653Z,80.50
2018-12-08T14:55:00.399Z,81.70
2018-12-08T14:57:28.351Z,80.30
2018-12-08T14:59:56.248Z,78.80
2018-12-08T15:02:24.607Z,77.60
2018-12-08T15:04:52.428Z,75.70
2018-12-08T15:07:20.122Z,74.30
2018-12-08T15:09:47.934Z,74.00
2018-12-08T15:12:15.818Z,73.60
2018-12-08T15:14:43.759Z,71.40
2018-12-08T15:17:11.678Z,71.00
2018-12-08T15:19:39.403Z,70.10
2018-12-08T15:22:07.124Z,70.50
2018-12-08T15:24:34.891Z,68.50
2018-12-08T15:27:02.739Z,68.90
2018-12-08T15:29:30.631Z,68.30
2018-12-08T15:31:58.428Z,68.50
2018-12-08T15:34:27.094Z,67.90
2018-12-08T15:36:55.028Z,66.60
2018-12-08T15:39:22.889Z,66.10
2018-12-08T15:41:50.584Z,66.50
2018-12-08T15:44:18.395Z,65.90
2018-12-08T15:46:46.850Z,66.50
2018-12-08T15:49:14.689Z,66.30
2018-12-08T15:51:43.267Z,66.80
2018-12-08T15:54:11.542Z,66.70
2018-12-08T15:56:40.143Z,66.90
2018-12-08T15:59:08.566Z,67.00
2018-12-08T16:01:36.636Z,66.70
2018-12-08T16:04:04.665Z,66.40
2018-12-08T16:06:34.237Z,67.00
2018-12-08T16:09:04.207Z,67.30
2018-12-08T16:11:32.087Z,67.30
2018-12-08T16:14:00.348Z,67.30
2018-12-08T16:16:28.591Z,67.50
2018-12-08T16:19:03.101Z,67.50
2018-12-08T16:21:31.148Z,67.00
2018-12-08T16:23:58.891Z,66.70
2018-12-08T16:26:26.772Z,66.70
2018-12-08T16:28:54.624Z,67.60
2018-12-08T16:31:23.720Z,67.60
2018-12-08T16:33:51.443Z,67.20
2018-12-08T16:41:51.383Z,69.70
2018-12-08T16:44:19.367Z,70.00
2018-12-08T16:46:47.115Z,70.90
2018-12-08T16:49:15.220Z,71.30
2018-12-08T16:51:44.146Z,71.60
2018-12-08T16:54:12.020Z,71.60
2018-12-08T16:56:39.951Z,71.30
2018-12-08T16:59:08.485Z,71.80
2018-12-08T17:01:36.630Z,71.90
2018-12-08T17:04:04.407Z,71.70
2018-12-08T17:06:32.397Z,71.30
2018-12-08T17:09:00.360Z,72.20
2018-12-08T17:11:28.193Z,71.50
2018-12-08T17:13:57.345Z,71.90
2018-12-08T17:16:25.233Z,71.60
2018-12-08T17:18:53.420Z,70.90
2018-12-08T17:21:21.468Z,71.30
2018-12-08T17:23:49.522Z,70.80
2018-12-08T17:26:17.483Z,70.40
2018-12-08T17:28:45.306Z,71.10
2018-12-08T17:31:13.292Z,70.60
2018-12-08T17:33:41.198Z,70.50
2018-12-08T17:36:09.066Z,71.40
2018-12-08T17:38:37.634Z,70.70
2018-12-08T17:41:05.739Z,70.60
2018-12-08T17:43:34.433Z,71.20
2018-12-08T17:46:02.305Z,70.40
2018-12-08T17:48:30.119Z,70.40
2018-12-08T17:50:57.914Z,70.40
2018-12-08T17:53:25.696Z,70.50
2018-12-08T17:55:53.956Z,70.20
2018-12-08T17:58:21.897Z,69.80
2018-12-08T18:00:49.798Z,69.90
2018-12-08T18:03:17.584Z,69.80
2018-12-08T18:05:45.430Z,69.30
2018-12-08T18:08:14.062Z,68.50
2018-12-08T18:10:41.841Z,69.00
2018-12-08T18:13:09.565Z,69.30
2018-12-08T18:15:37.394Z,69.50
2018-12-08T18:18:05.331Z,70.30
2018-12-08T18:20:33.117Z,70.00
2018-12-08T18:23:01.143Z,71.00
2018-12-08T18:25:29.086Z,71.10
2018-12-08T18:27:57.439Z,71.90
2018-12-08T18:30:25.410Z,72.30
2018-12-08T18:32:53.230Z,74.90
2018-12-08T18:35:21.141Z,75.50
2018-12-08T18:37:49.162Z,74.40
2018-12-08T18:40:16.936Z,75.50
2018-12-08T18:42:44.905Z,74.50
2018-12-08T18:45:13.532Z,75.30
2018-12-08T18:47:41.272Z,76.80
2018-12-08T18:50:09.663Z,77.70
2018-12-08T18:52:37.620Z,80.80
2018-12-08T18:55:05.674Z,80.60
2018-12-08T18:57:34.816Z,81.40
2018-12-08T19:00:03.806Z,82.40
2018-12-08T19:02:31.759Z,84.80
2018-12-08T19:04:59.539Z,85.80
2018-12-08T19:07:27.197Z,85.90
2018-12-08T19:09:56.193Z,86.60
2018-12-08T19:12:24.083Z,87.70
2018-12-08T19:14:52.023Z,87.30
2018-12-08T19:17:20.998Z,88.10
2018-12-08T19:19:48.743Z,88.10
2018-12-08T19:22:16.642Z,87.90
2018-12-08T19:24:47.140Z,86.00
2018-12-08T19:27:14.965Z,87.50
2018-12-08T19:29:42.819Z,85.50
2018-12-08T19:32:10.754Z,85.60
2018-12-08T19:34:39.135Z,85.80
2018-12-08T19:37:06.959Z,84.20
2018-12-08T19:39:34.780Z,81.20
2018-12-08T19:42:03.290Z,81.50
2018-12-08T19:44:31.133Z,81.60
2018-12-08T19:46:58.911Z,82.20
2018-12-08T19:49:26.667Z,82.50
2018-12-08T19:51:55.207Z,82.60
2018-12-08T19:54:23.042Z,83.40
2018-12-08T19:56:50.901Z,83.40
2018-12-08T19:59:18.822Z,85.50
2018-12-08T20:01:46.738Z,85.20
2018-12-08T20:04:14.559Z,85.00
2018-12-08T20:06:42.491Z,86.50
2018-12-08T20:09:10.467Z,86.50
2018-12-08T20:11:38.366Z,85.50
2018-12-08T20:14:06.296Z,86.60
2018-12-08T20:16:34.410Z,86.90
2018-12-08T20:19:03.043Z,86.80
2018-12-08T20:21:30.791Z,86.30
2018-12-08T20:23:58.522Z,86.20
2018-12-08T20:26:27.146Z,84.50
2018-12-08T20:28:55.046Z,84.30
2018-12-08T20:31:22.942Z,84.80
2018-12-08T20:33:50.858Z,86.20
2018-12-08T20:36:22.920Z,86.70
2018-12-08T20:38:50.721Z,85.10
2018-12-08T20:41:18.661Z,86.50
2018-12-08T20:43:46.421Z,86.20
2018-12-08T20:46:14.886Z,86.80
2018-12-08T20:48:42.714Z,88.70
2018-12-08T20:51:11.150Z,89.30
2018-12-08T20:53:38.949Z,88.30
2018-12-08T20:56:06.934Z,89.40
2018-12-08T20:58:34.907Z,90.10
2018-12-08T21:01:02.907Z,90.80
2018-12-08T21:03:31.753Z,92.20
2018-12-08T21:06:01.167Z,90.90
2018-12-08T21:08:29.030Z,90.00
2018-12-08T21:10:56.930Z,89.80
2018-12-08T21:13:24.701Z,89.50
2018-12-08T21:15:53.190Z,90.30
2018-12-08T21:18:20.993Z,90.60
2018-12-08T21:20:49.425Z,90.50
2018-12-08T21:23:17.677Z,91.10
2018-12-08T21:25:45.705Z,91.40
2018-12-08T21:28:14.256Z,92.00
2018-12-08T21:30:43.139Z,92.50
2018-12-08T21:33:10.991Z,92.60
2018-12-08T21:35:38.863Z,91.90
2018-12-08T21:38:06.947Z,91.60
2018-12-08T21:40:35.015Z,91.00
2018-12-08T21:43:02.862Z,90.30
2018-12-08T21:45:30.907Z,89.30
2018-12-08T21:47:59.232Z,87.80
2018-12-08T21:50:27.089Z,86.10
2018-12-08T21:52:54.950Z,85.80
2018-12-08T21:55:22.850Z,83.10
2018-12-08T21:57:50.579Z,81.60
2018-12-08T22:00:18.608Z,82.50
2018-12-08T22:02:46.463Z,81.20
2018-12-08T22:05:14.327Z,80.90
2018-12-08T22:07:42.206Z,80.00
2018-12-08T22:10:11.029Z,79.70
2018-12-08T22:12:39.306Z,79.60
2018-12-08T22:15:14.135Z,80.70
2018-12-08T22:17:42.198Z,81.40
2018-12-08T22:20:10.726Z,83.10
2018-12-08T22:22:38.478Z,86.70
2018-12-08T22:25:06.328Z,87.30
2018-12-08T22:27:35.098Z,89.50
2018-12-08T22:30:03.111Z,90.20
2018-12-08T22:32:30.842Z,91.20
2018-12-08T22:34:58.625Z,91.50
2018-12-08T22:37:26.570Z,92.20
2018-12-08T22:39:54.962Z,92.60
2018-12-08T22:42:23.705Z,92.30
2018-12-08T22:44:52.667Z,92.80
2018-12-08T22:47:20.441Z,93.00
2018-12-08T22:49:48.314Z,92.50
2018-12-08T22:52:16.116Z,93.00
2018-12-08T22:54:45.356Z,92.80
2018-12-08T22:57:13.139Z,93.50
2018-12-08T22:59:41.039Z,93.20
2018-12-08T23:02:08.722Z,93.10
2018-12-08T23:04:36.403Z,94.00
2018-12-08T23:07:06.954Z,93.80
2018-12-08T23:09:34.859Z,93.80
2018-12-08T23:12:02.737Z,94.00
2018-12-08T23:14:30.428Z,94.90
2018-12-08T23:16:58.949Z,95.10
2018-12-08T23:19:26.820Z,95.60
2018-12-08T23:21:55.162Z,95.60
2018-12-08T23:24:22.819Z,95.40
2018-12-08T23:26:50.539Z,95.10
2018-12-08T23:29:18.212Z,95.20
2018-12-08T23:31:45.887Z,95.30
2018-12-08T23:34:14.273Z,95.80
2018-12-08T23:36:42.213Z,95.70
2018-12-08T23:39:09.839Z,95.80
2018-12-08T23:41:37.522Z,95.80
2018-12-08T23:44:05.274Z,95.60
2018-12-08T23:46:32.952Z,95.60
2018-12-08T23:49:01.824Z,95.20
2018-12-08T23:51:29.901Z,95.10
2018-12-08T23:53:57.673Z,94.50
2018-12-08T23:56:26.029Z,93.90
2018-12-08T23:58:53.754Z,93.30
